Luca Zardes

Recruteur en chef - Philadelphia Union
21 Oct 2027
Jeudi
Processus

Personnalité

Adaptabilité (7) Ambition (8) Controverse (20) Loyauté (19) Pression (3) Professionnalisme (4) Sportivité (7) Tempérament (10)

Profil

Style d'entraînement Démocratique
Diplôme National B
Détermination 12
Gestion des joueurs 11
Motivation 6
Discipline 5
Satisfaction professionnelle
100%
Fatigue
0%
Rôle Recruteur en chef
Salaire 75.7K p/s
Contrat 14.03.2028

Performance

Comportement Bon
Efficacité de l'entraînement
45%
Développement des joueurs
40%
Prévention des blessures
60%
Mise en place tactique
65%

Événements récents

A évalué un joueur maintenant
A participé à une réunion de recrutement maintenant
A participé à une réunion de recrutement maintenant
A recommandé une cible de transfert maintenant
A recommandé une cible de transfert maintenant
A recommandé une cible de transfert maintenant
A recommandé une cible de transfert maintenant
A recommandé une cible de transfert maintenant

Suivi en cours

141
Joueur Club Statut Capacité Confiance Observé Dernière observation Dernier vote
Francisco Rincon Llaneros Actif 96 / 108 40% 2 19.10.2027 -
Tobi Ige Bendel Insurance Actif 78 / 97 40% 1 19.10.2027 -
Luis Otávio Colorado Rapids Actif 117 / 115 40% 2 18.10.2027 -
Lucas Camejo River Plate Actif 82 / 89 40% 1 18.10.2027 -
Mfundo Vilakazi Kaizer Chiefs Actif 115 / 122 40% 5 17.10.2027 -
Juan Román Gimenez Estudiantes Actif 97 / 101 40% 3 17.10.2027 -
Estêvão Millwall Actif 159 / 149 40% 3 16.10.2027 -
Archie Gray Derby County Actif 135 / 159 40% 2 16.10.2027 -
Mateo Silvetti Los Angeles Football Club Actif 133 / 130 40% 2 14.10.2027 -
Mustapha Umar Kano Pillars Actif 90 / 97 40% 4 13.10.2027 -
Lucas Duré Montevideo City Torque Actif 95 / 104 40% 2 13.10.2027 -
Abdoul Ouattara Burton Albion Actif 129 / 131 40% 2 11.10.2027 -
Abdulateef Yusuff Chikhura Actif 89 / 84 40% 2 11.10.2027 -
Kelly Madada AFC Leopards Actif 91 / 87 40% 3 10.10.2027 -
Themba Dala Ajax Cape Town Actif 118 / 122 40% 1 09.10.2027 -
Josh King Chelsea Actif 150 / 150 40% 8 08.10.2027 -
Mateo Peralta Danubio Actif 121 / 120 40% 1 08.10.2027 -
Oscar Otero Atletico Venezuela Actif 94 / 104 40% 2 02.10.2027 -
Chimobi Igwilo Rangers International Actif 90 / 94 40% 4 02.10.2027 -
Ben Gannon Doak Bournemouth Actif 141 / 145 40% 2 30.09.2027 -
Alex Amaefula Kun Khalifat Actif 75 / 91 40% 1 30.09.2027 -
Dylan Cabral Arsenal Actif 92 / 104 40% 1 28.09.2027 -
Joel Ezra Enyimba Actif 82 / 102 40% 1 26.09.2027 -
Nhlanhla Gasa Binga Actif 74 / 93 40% 1 26.09.2027 -
Fredrik Ardraa Stromsgodset Actif 94 / 116 40% 1 24.09.2027 -
Chaka Coulibaly Remo Stars Actif 77 / 102 40% 1 23.09.2027 -
Wisdom Udom Bendel Insurance Actif 98 / 97 40% 3 22.09.2027 -
Esteban de Lima Tacuarembo Actif 83 / 99 40% 1 16.09.2027 -
Abdulrahman Hamisu Niger Tornadoes Actif 83 / 95 40% 1 16.09.2027 -
Hassan Beja AFC Leopards Actif 84 / 92 40% 1 15.09.2027 -
Sadiq Auwal Niger Tornadoes Actif 86 / 92 40% 1 15.09.2027 -
Molemo Seemela FC Diarra Actif 92 / 90 40% 1 13.09.2027 -
Sunday Aniebet Enyimba Actif 80 / 99 40% 2 10.09.2027 -
Chinedu Nwosu Bendel Insurance Actif 94 / 87 40% 1 10.09.2027 -
Onuorah Onyedika Kun Khalifat Actif 72 / 89 40% 2 08.09.2027 -
Luis Vidal Deportivo Pereira Actif 84 / 87 40% 1 06.09.2027 -
Ian Wisdom Sporting Cristal Actif 99 / 107 40% 1 06.09.2027 -
Juan Torres Sporting Kansas City Actif 107 / 100 62% 1 02.08.2027 Approuver
Pedro de la Vega FC Dallas Négociation 133 / 134 66% 1 08.07.2027 Approuver
Hazeem Bakre Crawley Town Actif 93 / 85 40% 3 06.07.2027 -
Kutlwano Letlhaku Ajax Cape Town Actif 105 / 117 40% 3 06.07.2027 -
Ethan Williams Peterborough United Actif 122 / 122 40% 6 05.07.2027 -
Ishmael Addo Heart of Lions Actif 72 / 86 40% 2 01.07.2027 -
Caleb Yirenkyi Coventry City Actif 153 / 140 40% 4 01.07.2027 -
Jesús Rodríguez Como Actif 147 / 149 40% 3 30.06.2027 -
Shea Lacey Wolverhampton Actif 131 / 133 40% 4 30.06.2027 -
Daniel Awuni Aduana Stars Actif 84 / 91 40% 2 27.06.2027 -
Othmane Maamma Watford Actif 123 / 133 40% 7 26.06.2027 -
Oscar Schwartau Norwich City Actif 138 / 130 40% 4 24.06.2027 -
Jayden Addai Como Actif 146 / 138 40% 1 21.06.2027 -
Peter Amidu Acquah Asante Kotoko Actif 90 / 103 40% 2 18.06.2027 -
Lander Astiazarán Real Sociedad Actif 113 / 110 40% 4 18.06.2027 -
Kamarni Ryan Burton Albion Actif 88 / 105 40% 4 17.06.2027 -
Kai Enslin Charlton Athletic Actif 99 / 99 40% 3 16.06.2027 -
Thulani Dala Platinum Stars Actif 105 / 102 40% 3 15.06.2027 -
Calum Agius Crewe Alexandra Actif 84 / 94 40% 2 15.06.2027 -
Rayan Bournemouth Actif 148 / 136 40% 3 13.06.2027 -
Daniel Kelly Oxford United Actif 122 / 125 40% 1 11.06.2027 -
Rodrigo Mora AS Roma Actif 128 / 139 40% 2 09.06.2027 -
Fuzy Taylor Medeama Actif 79 / 82 40% 2 03.06.2027 -
Johan Manzambi Newcastle United Actif 154 / 149 40% 2 31.05.2027 -
Christos Mouzakitis Hull City Actif 131 / 137 40% 2 25.05.2027 -
Sidiki Chérif Coventry City Actif 124 / 138 40% 2 22.05.2027 -
Tom Olyott Giresunspor Actif 96 / 79 40% 1 20.05.2027 -
Matías Gómez Granada Actif 102 / 115 40% 1 16.05.2027 -
Monty Batlhabane Polokwane City Actif 104 / 102 40% 2 14.05.2027 -
Lynden Edhart Cambuur Actif 100 / 109 40% 1 11.05.2027 -
Riley Owen Trento Actif 103 / 114 40% 1 11.05.2027 -
Joel McGregor Swindon Town Actif 85 / 104 40% 1 09.05.2027 -
Rafael Navarro St. Louis CITY SC Actif 136 / 120 58% 1 22.02.2027 Approuver
Morgan Whittaker Middlesbrough Actif 121 / 131 40% 1 21.02.2027 -
Facundo Torres LOSC Lille Actif 134 / 134 67% 1 14.02.2027 Approuver
Konstantin Tyukavin Inter Négociation 132 / 133 66% 1 14.02.2027 Approuver
Leandro Andrade Olympiacos Actif 130 / 130 66% 1 14.02.2027 Approuver
Pablo Solari Galatasaray Actif 128 / 128 68% 1 14.02.2027 Approuver
Jack Diamond Stockport County Actif 124 / 114 40% 1 14.02.2027 -
Luis Vázquez Birmingham Actif 142 / 121 40% 1 13.02.2027 -
Wilson Isidor Sunderland Actif 142 / 135 40% 1 13.02.2027 -
Amine Adli Bournemouth Actif 160 / 138 40% 1 12.02.2027 -
Ryan Sessegnon Fulham Actif 151 / 138 40% 1 12.02.2027 -
Georginio Rutter Brighton Actif 132 / 153 40% 1 11.02.2027 -
Isaac Price West Bromwich Albion Actif 142 / 123 40% 1 10.02.2027 -
Mduduzi Shabalala Kaizer Chiefs Actif 115 / 113 40% 1 07.02.2027 -
Marcelo Allende Mamelodi Sundowns Actif 145 / 126 40% 5 05.02.2027 -
Stanley Mills Oxford United Actif 132 / 119 40% 2 05.02.2027 -
Tom Fellows Southampton Actif 129 / 135 40% 2 02.02.2027 -
Derensili Sanches Fernandes Huddersfield Town Actif 134 / 122 40% 1 02.02.2027 -
Andre Brooks Sheffield United Actif 127 / 133 40% 1 01.02.2027 -
Mandla Erasmus SuperSport United Actif 135 / 120 40% 5 31.01.2027 -
Cian Ashford Cardiff City Actif 109 / 123 40% 2 30.01.2027 -
Kwame Poku Queens Park Rangers Actif 139 / 129 40% 1 30.01.2027 -
Marquinhos Spartak Moscow Actif 116 / 133 40% 3 29.01.2027 -
Noah Sadiki Sunderland Actif 130 / 144 40% 1 28.01.2027 -
Ollie Tanner Cardiff City Actif 128 / 113 40% 1 28.01.2027 -
Mohamed Belloumi Hull City Actif 128 / 133 40% 1 25.01.2027 -
Kwadwo Baah Watford Actif 123 / 120 40% 1 22.01.2027 -
Bongani Modiba Black Aces Actif 127 / 120 40% 2 21.01.2027 -
Luciano Gondou CSKA Moscow Actif 135 / 129 40% 1 21.01.2027 -
Petar Stanić Ludogorets Actif 141 / 127 40% 3 19.01.2027 -
Suleiman Camara Slovan Bratislava Actif 110 / 116 40% 2 19.01.2027 -
Reda Khadra Qarabag Actif 125 / 136 40% 2 13.01.2027 -
Thalente Mbatha Orlando Pirates Actif 114 / 119 40% 6 12.01.2027 -
Tshepang Moremi Orlando Pirates Actif 104 / 115 40% 4 11.01.2027 -
Siyanda Ndlovu Bloemfontein Celtic Actif 128 / 119 40% 4 31.12.2026 -
Tornike Morchiladze HNK Rijeka Actif 123 / 123 40% 1 19.12.2026 -
Christian Krasnodar Actif 128 / 127 40% 2 18.12.2026 -
Conrad Wallem Austria Wien Actif 117 / 125 40% 3 15.12.2026 -
Esequiel Barco Spartak Moscow Actif 154 / 143 40% 1 14.12.2026 -
Jovon Makama Norwich City Actif 134 / 119 40% 1 13.12.2026 -
Everton Bala Levski Actif 137 / 121 40% 1 12.12.2026 -
Alan Lescano Argentinos Juniors Actif 127 / 134 40% 1 11.12.2026 -
Ruben van Bommel Ferencvaros Actif 148 / 128 40% 1 10.12.2026 -
Ra'ees Bangura-Williams Millwall Actif 131 / 124 40% 1 05.12.2026 -
Aidomo Emakhu Oxford United Actif 121 / 127 40% 1 02.12.2026 -
Bénie Traoré New York City Actif 119 / 120 40% 2 21.11.2026 -
Max Conway Bolton Wanderers Actif 108 / 111 40% 1 21.11.2026 -
Jack Currie Oxford United Actif 117 / 120 40% 2 19.11.2026 -
Nicolás Fernández Mercau Shakhtar Actif 151 / 125 40% 2 18.11.2026 -
Oswin Appollis Orlando Pirates Actif 128 / 121 40% 2 18.11.2026 -
Caolan Boyd-Munce Wycombe Wanderers Actif 130 / 109 40% 2 17.11.2026 -
Daniel Kyerewaa Reading Actif 99 / 110 40% 3 15.11.2026 -
Matthew Garbett Peterborough United Actif 121 / 106 40% 2 13.11.2026 -
George Earthy Reading Actif 124 / 113 40% 4 06.11.2026 -
Griffin Yow New England Revolution Actif 120 / 132 40% 1 16.10.2026 -
João Gomes Aston Villa Actif 151 / 133 40% 1 13.10.2026 -
Facundo Mura Inter Miami CF Actif 123 / 124 40% 1 13.10.2026 -
Paxten Aaronson Colorado Rapids Actif 128 / 137 40% 2 11.10.2026 -
Williams Manyama SuperSport United Actif 102 / 107 40% 3 07.10.2026 -
Antony Portland Timbers Actif 134 / 128 40% 1 05.10.2026 -
Kelvin Yeboah Minnesota United FC Actif 117 / 132 40% 1 30.09.2026 -
Iván Angulo Orlando City Actif 137 / 124 40% 2 29.09.2026 -
Riqui Puig LA Galaxy Actif 142 / 131 40% 1 22.09.2026 -
Joaquín Pereyra Minnesota United FC Actif 119 / 125 40% 1 17.09.2026 -
Telasco Segovia Inter Miami CF Actif 131 / 130 40% 1 14.09.2026 Plus d'infos
Juan Manuel Sanabria Real Salt Lake Actif 126 / 117 40% 1 13.09.2026 -
Costinha Brighton Actif 133 / 136 40% 1 13.09.2026 -
Ethan Laird Birmingham Actif 129 / 112 40% 1 11.09.2026 -
Maxim De Cuyper Brighton Actif 126 / 143 40% 1 10.09.2026 -
Andrés Herrera Columbus Crew Actif 117 / 128 40% 1 09.09.2026 -
Kyle Joseph Middlesbrough Actif 99 / 105 40% 1 08.09.2026 -
Gustavo Del Prete San Lorenzo Actif 129 / 115 40% 1 02.08.2026 -